sensor_id;sensor_type;location;lat;lon;timestamp;temperature;humidity
7206;DHT22;3644;53.480;10.004;2024-01-10T00:01:08;-2.50;99.90
7206;DHT22;3644;53.480;10.004;2024-01-10T00:03:33;-2.50;99.90
7206;DHT22;3644;53.480;10.004;2024-01-10T00:05:59;-2.40;99.90
7206;DHT22;3644;53.480;10.004;2024-01-10T00:08:24;-2.30;99.90
7206;DHT22;3644;53.480;10.004;2024-01-10T00:10:52;-2.40;99.90
7206;DHT22;3644;53.480;10.004;2024-01-10T00:13:19;-2.50;99.90
7206;DHT22;3644;53.480;10.004;2024-01-10T00:15:45;-2.50;99.90
7206;DHT22;3644;53.480;10.004;2024-01-10T00:18:11;-2.50;99.90
7206;DHT22;3644;53.480;10.004;2024-01-10T00:20:36;-2.70;99.90
7206;DHT22;3644;53.480;10.004;2024-01-10T00:23:02;-2.70;99.90
7206;DHT22;3644;53.480;10.004;2024-01-10T00:25:27;-2.80;99.90
7206;DHT22;3644;53.480;10.004;2024-01-10T00:27:53;-2.80;99.90
7206;DHT22;3644;53.480;10.004;2024-01-10T00:30:18;-2.80;99.90
7206;DHT22;3644;53.480;10.004;2024-01-10T00:32:44;-2.60;99.90
7206;DHT22;3644;53.480;10.004;2024-01-10T00:35:09;-2.80;99.90
7206;DHT22;3644;53.480;10.004;2024-01-10T00:37:36;-3.00;99.90
7206;DHT22;3644;53.480;10.004;2024-01-10T00:40:01;-3.00;99.90
7206;DHT22;3644;53.480;10.004;2024-01-10T00:42:27;-2.80;99.90
7206;DHT22;3644;53.480;10.004;2024-01-10T00:44:52;-2.80;99.90
7206;DHT22;3644;53.480;10.004;2024-01-10T00:47:18;-2.80;99.90
7206;DHT22;3644;53.480;10.004;2024-01-10T00:49:43;-2.50;99.90
7206;DHT22;3644;53.480;10.004;2024-01-10T00:52:09;-2.60;99.90
7206;DHT22;3644;53.480;10.004;2024-01-10T00:54:34;-2.60;99.90
7206;DHT22;3644;53.480;10.004;2024-01-10T00:57:00;-2.50;99.90
7206;DHT22;3644;53.480;10.004;2024-01-10T00:59:25;-2.60;99.90
7206;DHT22;3644;53.480;10.004;2024-01-10T01:01:50;-2.60;99.90
7206;DHT22;3644;53.480;10.004;2024-01-10T01:04:16;-2.50;99.90
7206;DHT22;3644;53.480;10.004;2024-01-10T01:06:42;-2.50;99.90
7206;DHT22;3644;53.480;10.004;2024-01-10T01:09:08;-2.60;99.90
7206;DHT22;3644;53.480;10.004;2024-01-10T01:11:33;-2.60;99.90
7206;DHT22;3644;53.480;10.004;2024-01-10T01:13:59;-2.60;99.90
7206;DHT22;3644;53.480;10.004;2024-01-10T01:16:24;-2.60;99.90
7206;DHT22;3644;53.480;10.004;2024-01-10T01:18:49;-2.60;99.90
7206;DHT22;3644;53.480;10.004;2024-01-10T01:21:15;-2.50;99.90
7206;DHT22;3644;53.480;10.004;2024-01-10T01:23:40;-2.60;99.90
7206;DHT22;3644;53.480;10.004;2024-01-10T01:26:06;-2.50;99.90
7206;DHT22;3644;53.480;10.004;2024-01-10T01:28:31;-2.50;99.90
7206;DHT22;3644;53.480;10.004;2024-01-10T01:30:57;-2.60;99.90
7206;DHT22;3644;53.480;10.004;2024-01-10T01:33:23;-2.60;99.90
7206;DHT22;3644;53.480;10.004;2024-01-10T01:35:48;-2.70;99.90
7206;DHT22;3644;53.480;10.004;2024-01-10T01:38:14;-2.80;99.90
7206;DHT22;3644;53.480;10.004;2024-01-10T01:40:39;-3.00;99.90
7206;DHT22;3644;53.480;10.004;2024-01-10T01:43:22;-2.90;99.90
7206;DHT22;3644;53.480;10.004;2024-01-10T01:45:51;-2.70;99.90
7206;DHT22;3644;53.480;10.004;2024-01-10T01:48:17;-2.80;99.90
7206;DHT22;3644;53.480;10.004;2024-01-10T01:50:44;-2.80;99.90
7206;DHT22;3644;53.480;10.004;2024-01-10T01:53:10;-3.00;99.90
7206;DHT22;3644;53.480;10.004;2024-01-10T01:55:35;-2.80;99.90
7206;DHT22;3644;53.480;10.004;2024-01-10T01:58:02;-2.80;99.90
7206;DHT22;3644;53.480;10.004;2024-01-10T02:00:27;-2.80;99.90
7206;DHT22;3644;53.480;10.004;2024-01-10T02:02:53;-2.80;99.90
7206;DHT22;3644;53.480;10.004;2024-01-10T02:05:19;-2.80;99.90
7206;DHT22;3644;53.480;10.004;2024-01-10T02:07:44;-2.70;99.90
7206;DHT22;3644;53.480;10.004;2024-01-10T02:10:10;-2.70;99.90
7206;DHT22;3644;53.480;10.004;2024-01-10T02:12:36;-2.50;99.90
7206;DHT22;3644;53.480;10.004;2024-01-10T02:15:01;-2.50;99.90
7206;DHT22;3644;53.480;10.004;2024-01-10T02:17:28;-2.60;99.90
7206;DHT22;3644;53.480;10.004;2024-01-10T02:20:14;-2.60;99.90
7206;DHT22;3644;53.480;10.004;2024-01-10T02:22:41;-2.60;99.90
7206;DHT22;3644;53.480;10.004;2024-01-10T02:25:10;-2.50;99.90
7206;DHT22;3644;53.480;10.004;2024-01-10T02:27:36;-2.60;99.90
7206;DHT22;3644;53.480;10.004;2024-01-10T02:30:06;-2.60;99.90
7206;DHT22;3644;53.480;10.004;2024-01-10T02:32:32;-2.40;99.90
7206;DHT22;3644;53.480;10.004;2024-01-10T02:34:58;-2.30;99.90
7206;DHT22;3644;53.480;10.004;2024-01-10T02:37:24;-2.10;99.90
7206;DHT22;3644;53.480;10.004;2024-01-10T02:39:50;-2.10;99.90
7206;DHT22;3644;53.480;10.004;2024-01-10T02:42:15;-2.20;99.90
7206;DHT22;3644;53.480;10.004;2024-01-10T02:44:41;-2.10;99.90
7206;DHT22;3644;53.480;10.004;2024-01-10T02:47:07;-2.10;99.90
7206;DHT22;3644;53.480;10.004;2024-01-10T02:49:33;-2.00;99.90
7206;DHT22;3644;53.480;10.004;2024-01-10T02:51:59;-1.90;99.90
7206;DHT22;3644;53.480;10.004;2024-01-10T02:54:24;-1.90;99.90
7206;DHT22;3644;53.480;10.004;2024-01-10T02:56:50;-1.90;99.90
7206;DHT22;3644;53.480;10.004;2024-01-10T02:59:16;-1.90;99.90
7206;DHT22;3644;53.480;10.004;2024-01-10T03:01:41;-1.90;99.90
7206;DHT22;3644;53.480;10.004;2024-01-10T03:04:07;-2.00;99.90
7206;DHT22;3644;53.480;10.004;2024-01-10T03:06:32;-1.90;99.90
7206;DHT22;3644;53.480;10.004;2024-01-10T03:08:57;-1.90;99.90
7206;DHT22;3644;53.480;10.004;2024-01-10T03:11:23;-1.90;99.90
7206;DHT22;3644;53.480;10.004;2024-01-10T03:13:51;-1.90;99.90
7206;DHT22;3644;53.480;10.004;2024-01-10T03:16:17;-2.00;99.90
7206;DHT22;3644;53.480;10.004;2024-01-10T03:18:42;-2.30;99.90
7206;DHT22;3644;53.480;10.004;2024-01-10T03:21:08;-2.50;99.90
7206;DHT22;3644;53.480;10.004;2024-01-10T03:23:33;-2.60;99.90
7206;DHT22;3644;53.480;10.004;2024-01-10T03:25:59;-2.70;99.90
7206;DHT22;3644;53.480;10.004;2024-01-10T03:28:24;-3.10;99.90
7206;DHT22;3644;53.480;10.004;2024-01-10T03:30:50;-3.40;99.90
7206;DHT22;3644;53.480;10.004;2024-01-10T03:33:16;-3.20;99.90
7206;DHT22;3644;53.480;10.004;2024-01-10T03:35:42;-3.40;99.90
7206;DHT22;3644;53.480;10.004;2024-01-10T03:38:07;-3.30;99.90
7206;DHT22;3644;53.480;10.004;2024-01-10T03:40:33;-3.30;99.90
7206;DHT22;3644;53.480;10.004;2024-01-10T03:42:59;-3.60;99.90
7206;DHT22;3644;53.480;10.004;2024-01-10T03:45:24;-3.90;99.90
7206;DHT22;3644;53.480;10.004;2024-01-10T03:47:50;-3.70;99.90
7206;DHT22;3644;53.480;10.004;2024-01-10T03:50:20;-3.50;99.90
7206;DHT22;3644;53.480;10.004;2024-01-10T03:52:46;-3.60;99.90
7206;DHT22;3644;53.480;10.004;2024-01-10T03:55:12;-3.60;99.90
7206;DHT22;3644;53.480;10.004;2024-01-10T03:57:41;-3.60;99.90
7206;DHT22;3644;53.480;10.004;2024-01-10T04:00:09;-3.60;99.90
7206;DHT22;3644;53.480;10.004;2024-01-10T04:02:37;-3.60;99.90
7206;DHT22;3644;53.480;10.004;2024-01-10T04:05:09;-3.70;99.90
7206;DHT22;3644;53.480;10.004;2024-01-10T04:07:36;-3.80;99.90
7206;DHT22;3644;53.480;10.004;2024-01-10T04:10:02;-3.90;99.90
7206;DHT22;3644;53.480;10.004;2024-01-10T04:12:28;-3.80;99.90
7206;DHT22;3644;53.480;10.004;2024-01-10T04:14:53;-3.40;99.90
7206;DHT22;3644;53.480;10.004;2024-01-10T04:17:19;-3.10;99.90
7206;DHT22;3644;53.480;10.004;2024-01-10T04:19:44;-2.90;99.90
7206;DHT22;3644;53.480;10.004;2024-01-10T04:22:10;-2.70;99.90
7206;DHT22;3644;53.480;10.004;2024-01-10T04:24:35;-2.80;99.90
7206;DHT22;3644;53.480;10.004;2024-01-10T04:27:01;-2.80;99.90
7206;DHT22;3644;53.480;10.004;2024-01-10T04:29:26;-2.60;99.90
7206;DHT22;3644;53.480;10.004;2024-01-10T04:31:52;-2.70;99.90
7206;DHT22;3644;53.480;10.004;2024-01-10T04:34:18;-2.70;99.90
7206;DHT22;3644;53.480;10.004;2024-01-10T04:36:43;-2.60;99.90
7206;DHT22;3644;53.480;10.004;2024-01-10T04:39:09;-2.50;99.90
7206;DHT22;3644;53.480;10.004;2024-01-10T04:41:35;-2.40;99.90
7206;DHT22;3644;53.480;10.004;2024-01-10T04:44:00;-2.50;99.90
7206;DHT22;3644;53.480;10.004;2024-01-10T04:46:26;-2.50;99.90
7206;DHT22;3644;53.480;10.004;2024-01-10T04:48:51;-2.60;99.90
7206;DHT22;3644;53.480;10.004;2024-01-10T04:51:17;-2.50;99.90
7206;DHT22;3644;53.480;10.004;2024-01-10T04:53:43;-2.50;99.90
7206;DHT22;3644;53.480;10.004;2024-01-10T04:56:08;-2.50;99.90
7206;DHT22;3644;53.480;10.004;2024-01-10T04:58:34;-2.60;99.90
7206;DHT22;3644;53.480;10.004;2024-01-10T05:01:00;-2.60;99.90
7206;DHT22;3644;53.480;10.004;2024-01-10T05:03:25;-2.50;99.90
7206;DHT22;3644;53.480;10.004;2024-01-10T05:05:51;-2.60;99.90
7206;DHT22;3644;53.480;10.004;2024-01-10T05:08:17;-2.50;99.90
7206;DHT22;3644;53.480;10.004;2024-01-10T05:10:45;-2.40;99.90
7206;DHT22;3644;53.480;10.004;2024-01-10T05:13:11;-2.20;99.90
7206;DHT22;3644;53.480;10.004;2024-01-10T05:15:37;-2.20;99.90
7206;DHT22;3644;53.480;10.004;2024-01-10T05:18:03;-2.00;99.90
7206;DHT22;3644;53.480;10.004;2024-01-10T05:20:28;-2.00;99.90
7206;DHT22;3644;53.480;10.004;2024-01-10T05:22:54;-1.90;99.90
7206;DHT22;3644;53.480;10.004;2024-01-10T05:25:19;-2.10;99.90
7206;DHT22;3644;53.480;10.004;2024-01-10T05:27:45;-2.00;99.90
7206;DHT22;3644;53.480;10.004;2024-01-10T05:30:10;-2.10;99.90
7206;DHT22;3644;53.480;10.004;2024-01-10T05:32:38;-1.90;99.90
7206;DHT22;3644;53.480;10.004;2024-01-10T05:35:03;-1.70;99.90
7206;DHT22;3644;53.480;10.004;2024-01-10T05:37:30;-1.40;99.90
7206;DHT22;3644;53.480;10.004;2024-01-10T05:39:55;-1.30;99.90
7206;DHT22;3644;53.480;10.004;2024-01-10T05:42:21;-1.20;99.90
7206;DHT22;3644;53.480;10.004;2024-01-10T05:44:47;-1.10;99.90
7206;DHT22;3644;53.480;10.004;2024-01-10T05:47:12;-0.90;99.90
7206;DHT22;3644;53.480;10.004;2024-01-10T05:49:38;-0.90;99.90
7206;DHT22;3644;53.480;10.004;2024-01-10T05:52:04;-0.90;99.90
7206;DHT22;3644;53.480;10.004;2024-01-10T05:54:29;-1.00;99.90
7206;DHT22;3644;53.480;10.004;2024-01-10T05:56:55;-0.80;99.90
7206;DHT22;3644;53.480;10.004;2024-01-10T05:59:20;-0.70;99.90
7206;DHT22;3644;53.480;10.004;2024-01-10T06:01:46;-0.60;99.90
7206;DHT22;3644;53.480;10.004;2024-01-10T06:04:11;-0.60;99.90
7206;DHT22;3644;53.480;10.004;2024-01-10T06:06:37;-0.90;99.90
7206;DHT22;3644;53.480;10.004;2024-01-10T06:09:02;-0.90;99.90
7206;DHT22;3644;53.480;10.004;2024-01-10T06:11:28;-0.90;99.90
7206;DHT22;3644;53.480;10.004;2024-01-10T06:13:54;-1.60;99.90
7206;DHT22;3644;53.480;10.004;2024-01-10T06:16:20;-1.60;99.90
7206;DHT22;3644;53.480;10.004;2024-01-10T06:18:45;-1.60;99.90
7206;DHT22;3644;53.480;10.004;2024-01-10T06:21:11;-1.80;99.90
7206;DHT22;3644;53.480;10.004;2024-01-10T06:23:36;-1.70;99.90
7206;DHT22;3644;53.480;10.004;2024-01-10T06:26:02;-1.30;99.90
7206;DHT22;3644;53.480;10.004;2024-01-10T06:28:27;-0.70;99.90
7206;DHT22;3644;53.480;10.004;2024-01-10T06:30:53;-0.10;99.90
7206;DHT22;3644;53.480;10.004;2024-01-10T06:33:18;0.40;99.90
7206;DHT22;3644;53.480;10.004;2024-01-10T06:35:45;0.90;99.90
7206;DHT22;3644;53.480;10.004;2024-01-10T06:38:11;1.40;99.90
7206;DHT22;3644;53.480;10.004;2024-01-10T06:40:36;1.10;99.90
7206;DHT22;3644;53.480;10.004;2024-01-10T06:43:03;1.00;99.90
7206;DHT22;3644;53.480;10.004;2024-01-10T06:45:29;0.90;99.90
7206;DHT22;3644;53.480;10.004;2024-01-10T06:47:54;0.80;99.90
7206;DHT22;3644;53.480;10.004;2024-01-10T06:50:20;0.50;99.90
7206;DHT22;3644;53.480;10.004;2024-01-10T06:52:46;0.00;99.90
7206;DHT22;3644;53.480;10.004;2024-01-10T06:55:12;-0.20;99.90
7206;DHT22;3644;53.480;10.004;2024-01-10T06:57:37;-0.20;99.90
7206;DHT22;3644;53.480;10.004;2024-01-10T07:00:03;-0.10;99.90
7206;DHT22;3644;53.480;10.004;2024-01-10T07:02:32;0.20;99.90
7206;DHT22;3644;53.480;10.004;2024-01-10T07:04:59;0.30;99.90
7206;DHT22;3644;53.480;10.004;2024-01-10T07:07:25;0.40;99.90
7206;DHT22;3644;53.480;10.004;2024-01-10T07:09:50;0.10;99.90
7206;DHT22;3644;53.480;10.004;2024-01-10T07:12:16;-0.10;99.90
7206;DHT22;3644;53.480;10.004;2024-01-10T07:14:41;-0.20;99.90
7206;DHT22;3644;53.480;10.004;2024-01-10T07:17:07;-0.10;99.90
7206;DHT22;3644;53.480;10.004;2024-01-10T07:19:32;-0.40;99.90
7206;DHT22;3644;53.480;10.004;2024-01-10T07:21:58;-0.80;99.90
7206;DHT22;3644;53.480;10.004;2024-01-10T07:24:23;-0.60;99.90
7206;DHT22;3644;53.480;10.004;2024-01-10T07:26:49;-0.60;99.90
7206;DHT22;3644;53.480;10.004;2024-01-10T07:29:14;-0.30;99.90
7206;DHT22;3644;53.480;10.004;2024-01-10T07:31:40;-0.10;99.90
7206;DHT22;3644;53.480;10.004;2024-01-10T07:34:06;-0.30;99.90
7206;DHT22;3644;53.480;10.004;2024-01-10T07:36:32;-1.00;99.90
7206;DHT22;3644;53.480;10.004;2024-01-10T07:38:59;-1.30;99.90
7206;DHT22;3644;53.480;10.004;2024-01-10T07:41:25;-1.10;99.90
7206;DHT22;3644;53.480;10.004;2024-01-10T07:43:50;-0.60;99.90
7206;DHT22;3644;53.480;10.004;2024-01-10T07:46:16;-0.20;99.90
7206;DHT22;3644;53.480;10.004;2024-01-10T07:48:42;0.00;99.90
7206;DHT22;3644;53.480;10.004;2024-01-10T07:51:07;0.10;99.90
7206;DHT22;3644;53.480;10.004;2024-01-10T07:53:33;0.20;99.90
7206;DHT22;3644;53.480;10.004;2024-01-10T07:55:59;0.30;99.90
7206;DHT22;3644;53.480;10.004;2024-01-10T07:58:24;0.20;99.90
7206;DHT22;3644;53.480;10.004;2024-01-10T08:00:50;0.30;99.90
7206;DHT22;3644;53.480;10.004;2024-01-10T08:03:16;0.40;99.90
7206;DHT22;3644;53.480;10.004;2024-01-10T08:05:42;0.50;99.90
7206;DHT22;3644;53.480;10.004;2024-01-10T08:08:08;0.50;99.90
7206;DHT22;3644;53.480;10.004;2024-01-10T08:10:34;0.60;99.90
7206;DHT22;3644;53.480;10.004;2024-01-10T08:13:00;0.40;99.90
7206;DHT22;3644;53.480;10.004;2024-01-10T08:15:25;0.30;99.90
7206;DHT22;3644;53.480;10.004;2024-01-10T08:17:51;-0.40;99.90
7206;DHT22;3644;53.480;10.004;2024-01-10T08:20:17;-0.80;99.90
7206;DHT22;3644;53.480;10.004;2024-01-10T08:22:46;-0.90;99.90
7206;DHT22;3644;53.480;10.004;2024-01-10T08:25:12;-1.00;99.90
7206;DHT22;3644;53.480;10.004;2024-01-10T08:27:41;-1.10;99.90
7206;DHT22;3644;53.480;10.004;2024-01-10T08:30:07;-1.00;99.90
7206;DHT22;3644;53.480;10.004;2024-01-10T08:32:35;-1.10;99.90
7206;DHT22;3644;53.480;10.004;2024-01-10T08:35:00;-1.30;99.90
7206;DHT22;3644;53.480;10.004;2024-01-10T08:37:26;-1.00;99.90
7206;DHT22;3644;53.480;10.004;2024-01-10T08:39:51;-0.80;99.90
7206;DHT22;3644;53.480;10.004;2024-01-10T08:42:17;-0.50;99.90
7206;DHT22;3644;53.480;10.004;2024-01-10T08:44:42;-0.50;99.90
7206;DHT22;3644;53.480;10.004;2024-01-10T08:47:08;-0.40;99.90
7206;DHT22;3644;53.480;10.004;2024-01-10T08:49:34;-0.30;99.90
7206;DHT22;3644;53.480;10.004;2024-01-10T08:51:59;-0.10;99.90
7206;DHT22;3644;53.480;10.004;2024-01-10T08:54:25;-0.50;99.90
7206;DHT22;3644;53.480;10.004;2024-01-10T08:56:50;-0.50;99.90
7206;DHT22;3644;53.480;10.004;2024-01-10T08:59:16;-0.30;99.90
7206;DHT22;3644;53.480;10.004;2024-01-10T09:01:41;-0.40;99.90
7206;DHT22;3644;53.480;10.004;2024-01-10T09:04:07;-0.30;99.90
7206;DHT22;3644;53.480;10.004;2024-01-10T09:06:33;-0.90;99.90
7206;DHT22;3644;53.480;10.004;2024-01-10T09:09:01;-1.20;99.90
7206;DHT22;3644;53.480;10.004;2024-01-10T09:11:26;-0.80;99.90
7206;DHT22;3644;53.480;10.004;2024-01-10T09:13:52;-0.70;99.90
7206;DHT22;3644;53.480;10.004;2024-01-10T09:16:17;-1.00;99.90
7206;DHT22;3644;53.480;10.004;2024-01-10T09:18:46;-0.90;99.90
7206;DHT22;3644;53.480;10.004;2024-01-10T09:21:11;-0.70;99.90
7206;DHT22;3644;53.480;10.004;2024-01-10T09:23:37;-0.20;99.90
7206;DHT22;3644;53.480;10.004;2024-01-10T09:26:03;0.10;99.90
7206;DHT22;3644;53.480;10.004;2024-01-10T09:28:29;0.30;99.90
7206;DHT22;3644;53.480;10.004;2024-01-10T09:30:54;0.40;99.90
7206;DHT22;3644;53.480;10.004;2024-01-10T09:33:20;0.60;99.90
7206;DHT22;3644;53.480;10.004;2024-01-10T09:35:46;0.60;99.90
7206;DHT22;3644;53.480;10.004;2024-01-10T09:38:12;0.60;99.90
7206;DHT22;3644;53.480;10.004;2024-01-10T09:40:38;0.70;99.90
7206;DHT22;3644;53.480;10.004;2024-01-10T09:43:05;0.80;99.90
7206;DHT22;3644;53.480;10.004;2024-01-10T09:45:35;0.80;99.90
7206;DHT22;3644;53.480;10.004;2024-01-10T09:48:01;0.70;99.90
7206;DHT22;3644;53.480;10.004;2024-01-10T09:50:27;0.50;99.90
7206;DHT22;3644;53.480;10.004;2024-01-10T09:52:54;0.20;99.90
7206;DHT22;3644;53.480;10.004;2024-01-10T09:55:24;0.10;99.90
7206;DHT22;3644;53.480;10.004;2024-01-10T09:57:51;0.40;99.90
7206;DHT22;3644;53.480;10.004;2024-01-10T10:00:17;0.50;99.90
7206;DHT22;3644;53.480;10.004;2024-01-10T10:02:46;0.80;99.90
7206;DHT22;3644;53.480;10.004;2024-01-10T10:05:14;1.00;99.90
7206;DHT22;3644;53.480;10.004;2024-01-10T10:07:51;1.00;99.90
7206;DHT22;3644;53.480;10.004;2024-01-10T10:10:17;1.00;99.90
7206;DHT22;3644;53.480;10.004;2024-01-10T10:12:45;1.00;99.90
7206;DHT22;3644;53.480;10.004;2024-01-10T10:15:32;1.10;99.90
7206;DHT22;3644;53.480;10.004;2024-01-10T10:17:57;1.20;99.90
7206;DHT22;3644;53.480;10.004;2024-01-10T10:20:23;1.30;99.90
7206;DHT22;3644;53.480;10.004;2024-01-10T10:23:08;1.30;99.90
7206;DHT22;3644;53.480;10.004;2024-01-10T10:25:36;1.40;99.90
7206;DHT22;3644;53.480;10.004;2024-01-10T10:28:04;1.40;99.90
7206;DHT22;3644;53.480;10.004;2024-01-10T10:30:32;1.50;99.90
7206;DHT22;3644;53.480;10.004;2024-01-10T10:32:58;1.40;99.90
7206;DHT22;3644;53.480;10.004;2024-01-10T10:35:24;1.40;99.90
7206;DHT22;3644;53.480;10.004;2024-01-10T10:37:51;1.30;99.90
7206;DHT22;3644;53.480;10.004;2024-01-10T10:40:18;1.10;99.90
7206;DHT22;3644;53.480;10.004;2024-01-10T10:42:45;1.20;99.90
7206;DHT22;3644;53.480;10.004;2024-01-10T10:45:14;1.20;99.90
7206;DHT22;3644;53.480;10.004;2024-01-10T10:47:41;1.20;99.90
7206;DHT22;3644;53.480;10.004;2024-01-10T10:50:12;1.20;99.90
7206;DHT22;3644;53.480;10.004;2024-01-10T10:52:39;1.30;99.90
7206;DHT22;3644;53.480;10.004;2024-01-10T10:55:09;1.30;99.90
7206;DHT22;3644;53.480;10.004;2024-01-10T10:57:36;1.40;99.90
7206;DHT22;3644;53.480;10.004;2024-01-10T11:00:01;1.40;99.90
7206;DHT22;3644;53.480;10.004;2024-01-10T11:02:27;1.30;99.90
7206;DHT22;3644;53.480;10.004;2024-01-10T11:04:54;1.30;99.90
7206;DHT22;3644;53.480;10.004;2024-01-10T11:07:20;1.50;99.90
7206;DHT22;3644;53.480;10.004;2024-01-10T11:09:47;0.90;99.90
7206;DHT22;3644;53.480;10.004;2024-01-10T11:12:26;1.10;99.90
7206;DHT22;3644;53.480;10.004;2024-01-10T11:18:19;1.20;99.90
7206;DHT22;3644;53.480;10.004;2024-01-10T11:21:16;1.30;99.90
7206;DHT22;3644;53.480;10.004;2024-01-10T11:23:45;1.50;99.90
7206;DHT22;3644;53.480;10.004;2024-01-10T11:26:13;1.40;99.90
7206;DHT22;3644;53.480;10.004;2024-01-10T11:28:40;1.30;99.90
7206;DHT22;3644;53.480;10.004;2024-01-10T11:31:07;1.10;99.90
7206;DHT22;3644;53.480;10.004;2024-01-10T11:33:35;0.90;99.90
7206;DHT22;3644;53.480;10.004;2024-01-10T11:36:17;0.30;99.90
7206;DHT22;3644;53.480;10.004;2024-01-10T11:41:28;0.90;99.90
7206;DHT22;3644;53.480;10.004;2024-01-10T11:46:47;1.20;99.90
7206;DHT22;3644;53.480;10.004;2024-01-10T11:49:18;1.10;99.90
7206;DHT22;3644;53.480;10.004;2024-01-10T11:51:53;1.20;99.90
7206;DHT22;3644;53.480;10.004;2024-01-10T11:54:38;1.40;99.90
7206;DHT22;3644;53.480;10.004;2024-01-10T11:57:13;1.40;99.90
7206;DHT22;3644;53.480;10.004;2024-01-10T11:59:41;1.50;99.90
7206;DHT22;3644;53.480;10.004;2024-01-10T12:02:07;1.60;99.90
7206;DHT22;3644;53.480;10.004;2024-01-10T12:04:33;1.80;99.90
7206;DHT22;3644;53.480;10.004;2024-01-10T12:07:02;1.50;99.90
7206;DHT22;3644;53.480;10.004;2024-01-10T12:09:27;1.50;99.90
7206;DHT22;3644;53.480;10.004;2024-01-10T12:11:53;1.50;99.90
7206;DHT22;3644;53.480;10.004;2024-01-10T12:14:18;1.50;99.90
7206;DHT22;3644;53.480;10.004;2024-01-10T12:16:46;1.80;99.90
7206;DHT22;3644;53.480;10.004;2024-01-10T12:19:12;1.90;99.90
7206;DHT22;3644;53.480;10.004;2024-01-10T12:21:37;1.80;99.90
7206;DHT22;3644;53.480;10.004;2024-01-10T12:24:06;1.60;99.90
7206;DHT22;3644;53.480;10.004;2024-01-10T12:26:31;1.30;99.90
7206;DHT22;3644;53.480;10.004;2024-01-10T12:28:59;0.80;99.90
7206;DHT22;3644;53.480;10.004;2024-01-10T12:31:28;0.30;99.90
7206;DHT22;3644;53.480;10.004;2024-01-10T12:33:59;0.20;99.90
7206;DHT22;3644;53.480;10.004;2024-01-10T12:36:24;0.50;99.90
7206;DHT22;3644;53.480;10.004;2024-01-10T12:38:50;1.10;99.90
7206;DHT22;3644;53.480;10.004;2024-01-10T12:41:18;1.00;99.90
7206;DHT22;3644;53.480;10.004;2024-01-10T12:43:49;1.10;99.90
7206;DHT22;3644;53.480;10.004;2024-01-10T12:46:15;1.30;99.90
7206;DHT22;3644;53.480;10.004;2024-01-10T12:48:41;1.00;99.90
7206;DHT22;3644;53.480;10.004;2024-01-10T12:51:08;1.30;99.90
7206;DHT22;3644;53.480;10.004;2024-01-10T12:53:43;1.30;99.90
7206;DHT22;3644;53.480;10.004;2024-01-10T12:56:10;1.10;99.90
7206;DHT22;3644;53.480;10.004;2024-01-10T12:58:40;1.00;99.90
7206;DHT22;3644;53.480;10.004;2024-01-10T13:01:08;1.10;99.90
7206;DHT22;3644;53.480;10.004;2024-01-10T13:03:33;1.10;99.90
7206;DHT22;3644;53.480;10.004;2024-01-10T13:05:59;0.90;99.90
7206;DHT22;3644;53.480;10.004;2024-01-10T13:08:25;0.60;99.90
7206;DHT22;3644;53.480;10.004;2024-01-10T13:10:50;0.70;99.90
7206;DHT22;3644;53.480;10.004;2024-01-10T13:13:16;0.60;99.90
7206;DHT22;3644;53.480;10.004;2024-01-10T13:15:44;0.40;99.90
7206;DHT22;3644;53.480;10.004;2024-01-10T13:18:10;0.40;99.90
7206;DHT22;3644;53.480;10.004;2024-01-10T13:20:36;0.20;99.90
7206;DHT22;3644;53.480;10.004;2024-01-10T13:23:03;0.00;99.90
7206;DHT22;3644;53.480;10.004;2024-01-10T13:25:29;0.20;99.90
7206;DHT22;3644;53.480;10.004;2024-01-10T13:27:54;0.50;99.90
7206;DHT22;3644;53.480;10.004;2024-01-10T13:30:20;0.80;99.90
7206;DHT22;3644;53.480;10.004;2024-01-10T13:32:46;0.90;99.90
7206;DHT22;3644;53.480;10.004;2024-01-10T13:35:15;1.00;99.90
7206;DHT22;3644;53.480;10.004;2024-01-10T13:37:45;0.90;99.90
7206;DHT22;3644;53.480;10.004;2024-01-10T13:40:11;0.80;99.90
7206;DHT22;3644;53.480;10.004;2024-01-10T13:42:40;0.60;99.90
7206;DHT22;3644;53.480;10.004;2024-01-10T13:45:07;0.40;99.90
7206;DHT22;3644;53.480;10.004;2024-01-10T13:47:39;0.60;99.90
7206;DHT22;3644;53.480;10.004;2024-01-10T13:50:06;0.90;99.90
7206;DHT22;3644;53.480;10.004;2024-01-10T13:52:33;1.20;99.90
7206;DHT22;3644;53.480;10.004;2024-01-10T13:54:59;1.30;99.90
7206;DHT22;3644;53.480;10.004;2024-01-10T13:57:25;1.30;99.90
7206;DHT22;3644;53.480;10.004;2024-01-10T13:59:50;1.00;99.90
7206;DHT22;3644;53.480;10.004;2024-01-10T14:02:16;0.50;99.90
7206;DHT22;3644;53.480;10.004;2024-01-10T14:04:43;0.40;99.90
7206;DHT22;3644;53.480;10.004;2024-01-10T14:07:10;0.10;99.90
7206;DHT22;3644;53.480;10.004;2024-01-10T14:09:35;0.50;99.90
7206;DHT22;3644;53.480;10.004;2024-01-10T14:12:01;0.80;99.90
7206;DHT22;3644;53.480;10.004;2024-01-10T14:14:26;0.80;99.90
7206;DHT22;3644;53.480;10.004;2024-01-10T14:16:52;1.00;99.90
7206;DHT22;3644;53.480;10.004;2024-01-10T14:19:17;1.10;99.90
7206;DHT22;3644;53.480;10.004;2024-01-10T14:21:43;1.20;99.90
7206;DHT22;3644;53.480;10.004;2024-01-10T14:24:09;1.30;99.90
7206;DHT22;3644;53.480;10.004;2024-01-10T14:26:34;1.20;99.90
7206;DHT22;3644;53.480;10.004;2024-01-10T14:29:00;0.90;99.90
7206;DHT22;3644;53.480;10.004;2024-01-10T14:31:26;0.50;99.90
7206;DHT22;3644;53.480;10.004;2024-01-10T14:33:53;0.40;99.90
7206;DHT22;3644;53.480;10.004;2024-01-10T14:36:19;0.00;99.90
7206;DHT22;3644;53.480;10.004;2024-01-10T14:38:44;0.00;99.90
7206;DHT22;3644;53.480;10.004;2024-01-10T14:41:10;0.10;99.90
7206;DHT22;3644;53.480;10.004;2024-01-10T14:43:36;0.50;99.90
7206;DHT22;3644;53.480;10.004;2024-01-10T14:46:02;0.50;99.90
7206;DHT22;3644;53.480;10.004;2024-01-10T14:48:28;0.70;99.90
7206;DHT22;3644;53.480;10.004;2024-01-10T14:50:53;0.90;99.90
7206;DHT22;3644;53.480;10.004;2024-01-10T14:53:19;1.20;99.90
7206;DHT22;3644;53.480;10.004;2024-01-10T14:55:44;1.10;99.90
7206;DHT22;3644;53.480;10.004;2024-01-10T14:58:10;0.90;99.90
7206;DHT22;3644;53.480;10.004;2024-01-10T15:00:35;0.50;99.90
7206;DHT22;3644;53.480;10.004;2024-01-10T15:03:01;0.60;99.90
7206;DHT22;3644;53.480;10.004;2024-01-10T15:05:29;0.70;99.90
7206;DHT22;3644;53.480;10.004;2024-01-10T15:07:55;0.60;99.90
7206;DHT22;3644;53.480;10.004;2024-01-10T15:10:20;0.70;99.90
7206;DHT22;3644;53.480;10.004;2024-01-10T15:12:46;0.90;99.90
7206;DHT22;3644;53.480;10.004;2024-01-10T15:15:11;0.60;99.90
7206;DHT22;3644;53.480;10.004;2024-01-10T15:17:37;0.10;99.90
7206;DHT22;3644;53.480;10.004;2024-01-10T15:20:03;0.30;99.90
7206;DHT22;3644;53.480;10.004;2024-01-10T15:22:29;0.40;99.90
7206;DHT22;3644;53.480;10.004;2024-01-10T15:24:54;0.60;99.90
7206;DHT22;3644;53.480;10.004;2024-01-10T15:27:20;0.60;99.90
7206;DHT22;3644;53.480;10.004;2024-01-10T15:29:45;0.70;99.90
7206;DHT22;3644;53.480;10.004;2024-01-10T15:32:11;0.70;99.90
7206;DHT22;3644;53.480;10.004;2024-01-10T15:34:37;0.40;99.90
7206;DHT22;3644;53.480;10.004;2024-01-10T15:37:03;0.60;99.90
7206;DHT22;3644;53.480;10.004;2024-01-10T15:39:29;0.50;99.90
7206;DHT22;3644;53.480;10.004;2024-01-10T15:41:54;0.60;99.90
7206;DHT22;3644;53.480;10.004;2024-01-10T15:44:21;0.90;99.90
7206;DHT22;3644;53.480;10.004;2024-01-10T15:46:46;0.80;99.90
7206;DHT22;3644;53.480;10.004;2024-01-10T15:49:12;0.10;99.90
7206;DHT22;3644;53.480;10.004;2024-01-10T15:51:38;0.20;99.90
7206;DHT22;3644;53.480;10.004;2024-01-10T15:54:04;0.30;99.90
7206;DHT22;3644;53.480;10.004;2024-01-10T15:56:29;0.30;99.90